createdAt,value
2023-05-01T00:00:13.263Z,7.12
2023-05-01T00:01:14.158Z,7.12
2023-05-01T00:02:15.061Z,7.10
2023-05-01T00:03:15.990Z,7.12
2023-05-01T00:04:17.114Z,7.12
2023-05-01T00:05:17.658Z,7.12
2023-05-01T00:06:18.583Z,7.10
2023-05-01T00:07:19.427Z,7.12
2023-05-01T00:08:20.300Z,7.12
2023-05-01T00:09:21.224Z,7.10
2023-05-01T00:10:22.104Z,7.09
2023-05-01T00:11:23.008Z,7.10
2023-05-01T00:12:23.884Z,7.10
2023-05-01T00:13:24.759Z,7.12
2023-05-01T00:14:25.631Z,7.10
2023-05-01T00:15:26.510Z,7.10
2023-05-01T00:16:27.436Z,7.09
2023-05-01T00:17:28.316Z,7.09
2023-05-01T00:18:29.191Z,7.09
2023-05-01T00:19:30.072Z,7.10
2023-05-01T00:20:30.977Z,7.09
2023-05-01T00:21:31.858Z,7.09
2023-05-01T00:22:32.727Z,7.05
2023-05-01T00:23:33.604Z,6.98
2023-05-01T00:24:34.501Z,6.97
2023-05-01T00:25:35.358Z,6.92
2023-05-01T00:26:36.257Z,6.88
2023-05-01T00:27:37.134Z,6.85
2023-05-01T00:28:38.036Z,6.84
2023-05-01T00:29:38.911Z,6.81
2023-05-01T00:30:39.783Z,6.80
2023-05-01T00:31:40.714Z,6.80
2023-05-01T00:32:41.588Z,6.80
2023-05-01T00:33:42.435Z,6.76
2023-05-01T00:34:43.309Z,6.79
2023-05-01T00:35:44.198Z,6.79
2023-05-01T00:36:45.093Z,6.77
2023-05-01T00:37:45.972Z,6.79
2023-05-01T00:38:46.849Z,6.77
2023-05-01T00:39:47.746Z,6.76
2023-05-01T00:40:48.603Z,6.76
2023-05-01T00:41:49.497Z,6.77
2023-05-01T00:42:50.369Z,6.76
2023-05-01T00:43:51.262Z,6.77
2023-05-01T00:44:52.150Z,6.77
2023-05-01T00:45:53.103Z,6.77
2023-05-01T00:46:53.970Z,6.77
2023-05-01T00:47:54.904Z,6.74
2023-05-01T00:48:55.742Z,6.76
2023-05-01T00:49:56.967Z,6.74
2023-05-01T00:50:57.131Z,6.73
2023-05-01T00:51:58.037Z,6.71
2023-05-01T00:52:58.916Z,6.73
2023-05-01T00:53:59.806Z,6.67
2023-05-01T00:55:00.727Z,6.67
2023-05-01T00:56:01.572Z,6.66
2023-05-01T00:57:02.471Z,6.62
2023-05-01T00:58:03.346Z,6.59
2023-05-01T00:59:04.230Z,6.59
2023-05-01T01:00:05.114Z,6.61
2023-05-01T01:01:06.005Z,6.58
2023-05-01T01:02:06.868Z,6.56
2023-05-01T01:03:07.783Z,6.58
2023-05-01T01:04:08.709Z,6.55
2023-05-01T01:05:09.560Z,6.54
2023-05-01T01:06:10.485Z,6.55
2023-05-01T01:07:11.341Z,6.52
2023-05-01T01:08:12.219Z,6.51
2023-05-01T01:09:13.096Z,6.48
2023-05-01T01:10:14.019Z,6.46
2023-05-01T01:11:14.861Z,6.44
2023-05-01T01:12:15.770Z,6.48
2023-05-01T01:13:16.663Z,6.46
2023-05-01T01:14:17.536Z,6.48
2023-05-01T01:15:18.388Z,6.44
2023-05-01T01:16:19.316Z,6.44
2023-05-01T01:17:20.177Z,6.44
2023-05-01T01:18:21.051Z,6.44
2023-05-01T01:19:21.922Z,6.46
2023-05-01T01:20:22.809Z,6.49
2023-05-01T01:21:23.676Z,6.49
2023-05-01T01:22:24.573Z,6.49
2023-05-01T01:23:25.438Z,6.51
2023-05-01T01:24:26.322Z,6.52
2023-05-01T01:25:27.222Z,6.52
2023-05-01T01:26:28.078Z,6.52
2023-05-01T01:27:28.972Z,6.51
2023-05-01T01:28:29.836Z,6.51
2023-05-01T01:29:30.722Z,6.51
2023-05-01T01:30:31.594Z,6.51
2023-05-01T01:31:32.488Z,6.52
2023-05-01T01:32:33.445Z,6.51
2023-05-01T01:33:34.281Z,6.49
2023-05-01T01:34:35.165Z,6.48
2023-05-01T01:35:36.061Z,6.49
2023-05-01T01:36:36.924Z,6.48
2023-05-01T01:37:37.806Z,6.49
2023-05-01T01:38:38.688Z,6.44
2023-05-01T01:39:39.568Z,6.43
2023-05-01T01:40:40.475Z,6.41
2023-05-01T01:41:41.321Z,6.38
2023-05-01T01:42:42.214Z,6.36
2023-05-01T01:43:43.084Z,6.33
2023-05-01T01:44:43.977Z,6.30
2023-05-01T01:45:44.872Z,6.30
2023-05-01T01:46:45.871Z,6.31
2023-05-01T01:47:46.276Z,6.30
2023-05-01T01:48:47.131Z,6.30
2023-05-01T01:49:48.020Z,6.28
2023-05-01T01:50:48.888Z,6.28
2023-05-01T01:51:49.763Z,6.28
2023-05-01T01:52:50.643Z,6.28
2023-05-01T01:53:51.536Z,6.25
2023-05-01T01:54:52.394Z,6.22
2023-05-01T01:55:53.299Z,6.18
2023-05-01T01:56:54.148Z,6.19
2023-05-01T01:57:55.037Z,6.18
2023-05-01T01:58:55.924Z,6.18
2023-05-01T01:59:57.026Z,6.18
2023-05-01T02:00:57.528Z,6.18
2023-05-01T02:01:58.445Z,6.18
2023-05-01T02:02:59.402Z,6.19
2023-05-01T02:04:00.419Z,6.18
2023-05-01T02:05:01.267Z,6.18
2023-05-01T02:06:02.178Z,6.17
2023-05-01T02:07:03.023Z,6.17
2023-05-01T02:08:03.915Z,6.15
2023-05-01T02:09:04.789Z,6.12
2023-05-01T02:10:05.669Z,6.12
2023-05-01T02:11:06.677Z,6.06
2023-05-01T02:12:07.498Z,6.06
2023-05-01T02:13:08.377Z,6.04
2023-05-01T02:14:09.264Z,6.03
2023-05-01T02:15:10.139Z,6.01
2023-05-01T02:16:11.066Z,6.00
2023-05-01T02:17:11.911Z,6.01
2023-05-01T02:18:12.809Z,6.01
2023-05-01T02:19:13.683Z,6.00
2023-05-01T02:20:14.564Z,6.00
2023-05-01T02:21:15.432Z,5.99
2023-05-01T02:22:16.311Z,5.96
2023-05-01T02:23:17.201Z,5.96
2023-05-01T02:24:18.124Z,5.93
2023-05-01T02:25:19.045Z,5.93
2023-05-01T02:26:19.949Z,5.91
2023-05-01T02:27:20.807Z,5.91
2023-05-01T02:28:21.698Z,5.90
2023-05-01T02:29:22.580Z,5.90
2023-05-01T02:30:23.466Z,5.86
2023-05-01T02:31:24.339Z,5.89
2023-05-01T02:32:25.292Z,5.83
2023-05-01T02:33:25.829Z,5.83
2023-05-01T02:34:26.715Z,5.85
2023-05-01T02:35:27.589Z,5.83
2023-05-01T02:36:28.488Z,5.81
2023-05-01T02:37:29.344Z,5.81
2023-05-01T02:38:30.236Z,5.79
2023-05-01T02:39:31.117Z,5.82
2023-05-01T02:40:32.000Z,5.82
2023-05-01T02:41:32.905Z,5.82
2023-05-01T02:42:33.752Z,5.83
2023-05-01T02:43:34.642Z,5.82
2023-05-01T02:44:35.522Z,5.86
2023-05-01T02:45:36.461Z,5.85
2023-05-01T02:46:37.405Z,5.86
2023-05-01T02:47:38.296Z,5.85
2023-05-01T02:48:39.162Z,5.85
2023-05-01T02:49:40.028Z,5.85
2023-05-01T02:50:40.907Z,5.86
2023-05-01T02:51:41.779Z,5.89
2023-05-01T02:52:42.655Z,5.89
2023-05-01T02:53:43.538Z,5.90
2023-05-01T02:54:44.418Z,5.86
2023-05-01T02:55:45.299Z,5.83
2023-05-01T02:56:46.195Z,5.83
2023-05-01T02:57:47.050Z,5.82
2023-05-01T02:58:47.940Z,5.79
2023-05-01T02:59:48.827Z,5.81
2023-05-01T03:00:49.949Z,5.79
2023-05-01T03:01:50.581Z,5.78
2023-05-01T03:02:51.449Z,5.78
2023-05-01T03:03:52.410Z,5.78
2023-05-01T03:04:53.267Z,5.75
2023-05-01T03:05:54.152Z,5.76
2023-05-01T03:06:55.037Z,5.72
2023-05-01T03:07:55.894Z,5.71
2023-05-01T03:08:56.790Z,5.71
2023-05-01T03:09:57.920Z,5.65
2023-05-01T03:10:58.368Z,5.65
2023-05-01T03:11:59.256Z,5.65
2023-05-01T03:13:00.123Z,5.64
2023-05-01T03:14:00.990Z,5.61
2023-05-01T03:15:01.876Z,5.61
2023-05-01T03:16:02.776Z,5.61
2023-05-01T03:17:03.625Z,5.61
2023-05-01T03:18:04.544Z,5.63
2023-05-01T03:19:05.443Z,5.61
2023-05-01T03:20:06.339Z,5.61
2023-05-01T03:21:07.201Z,5.63
2023-05-01T03:22:08.068Z,5.63
2023-05-01T03:23:08.947Z,5.61
2023-05-01T03:24:09.830Z,5.63
2023-05-01T03:25:10.707Z,5.64
2023-05-01T03:26:11.595Z,5.61
2023-05-01T03:27:12.483Z,5.63
2023-05-01T03:28:13.340Z,5.58
2023-05-01T03:29:14.228Z,5.60
2023-05-01T03:30:15.103Z,5.58
2023-05-01T03:31:15.980Z,5.58
2023-05-01T03:32:16.976Z,5.60
2023-05-01T03:33:17.339Z,5.61
2023-05-01T03:34:18.221Z,5.60
2023-05-01T03:35:19.158Z,5.60
2023-05-01T03:36:19.691Z,5.61
2023-05-01T03:37:20.572Z,5.63
2023-05-01T03:38:21.443Z,5.63
2023-05-01T03:39:22.289Z,5.65
2023-05-01T03:40:23.107Z,5.67
2023-05-01T03:41:23.988Z,5.65
2023-05-01T03:42:24.898Z,5.68
2023-05-01T03:43:25.868Z,5.64
2023-05-01T03:44:26.655Z,5.61
2023-05-01T03:45:27.488Z,5.61
2023-05-01T03:46:28.379Z,5.58
2023-05-01T03:47:29.237Z,5.56
2023-05-01T03:48:30.032Z,5.56
2023-05-01T03:49:30.860Z,5.54
2023-05-01T03:50:31.685Z,5.48
2023-05-01T03:51:32.510Z,5.48
2023-05-01T03:52:33.329Z,5.48
2023-05-01T03:53:34.169Z,5.46
2023-05-01T03:54:35.000Z,5.45
2023-05-01T03:55:35.824Z,5.43
2023-05-01T03:56:36.659Z,5.45
2023-05-01T03:57:37.488Z,5.45
2023-05-01T03:58:38.297Z,5.45
2023-05-01T03:59:39.120Z,5.49
2023-05-01T04:00:39.968Z,5.48
2023-05-01T04:01:40.825Z,5.53
2023-05-01T04:02:41.700Z,5.53
2023-05-01T04:03:42.187Z,5.54
2023-05-01T04:04:43.019Z,5.56
2023-05-01T04:05:43.874Z,5.57
2023-05-01T04:06:44.808Z,5.58
2023-05-01T04:07:45.668Z,5.58
2023-05-01T04:08:46.490Z,5.61
2023-05-01T04:09:47.334Z,5.63
2023-05-01T04:10:48.148Z,5.60
2023-05-01T04:11:48.968Z,5.63
2023-05-01T04:12:49.802Z,5.63
2023-05-01T04:13:50.623Z,5.64
2023-05-01T04:14:51.444Z,5.65
2023-05-01T04:15:52.299Z,5.67
2023-05-01T04:16:53.106Z,5.67
2023-05-01T04:17:53.966Z,5.68
2023-05-01T04:18:54.765Z,5.72
2023-05-01T04:19:55.740Z,5.74
2023-05-01T04:20:56.161Z,5.76
2023-05-01T04:21:56.999Z,5.76
2023-05-01T04:22:57.801Z,5.79
2023-05-01T04:23:58.708Z,5.81
2023-05-01T04:24:59.529Z,5.85
2023-05-01T04:26:00.355Z,5.85
2023-05-01T04:27:01.177Z,5.86
2023-05-01T04:28:02.115Z,5.85
2023-05-01T04:29:02.891Z,5.86
2023-05-01T04:30:03.736Z,5.85
2023-05-01T04:31:04.586Z,5.83
2023-05-01T04:32:05.580Z,5.83
2023-05-01T04:33:06.004Z,5.82
2023-05-01T04:34:06.818Z,5.83
2023-05-01T04:35:07.650Z,5.82
2023-05-01T04:36:08.476Z,5.81
2023-05-01T04:37:09.311Z,5.83
2023-05-01T04:38:10.249Z,5.83
2023-05-01T04:39:11.253Z,5.82
2023-05-01T04:40:11.932Z,5.82
2023-05-01T04:41:12.233Z,5.83
2023-05-01T04:42:13.071Z,5.83
2023-05-01T04:43:13.934Z,5.83
2023-05-01T04:44:14.735Z,5.83
2023-05-01T04:45:15.557Z,5.83
2023-05-01T04:46:16.423Z,5.83
2023-05-01T04:47:17.251Z,5.85
2023-05-01T04:48:18.102Z,5.86
2023-05-01T04:49:18.925Z,5.85
2023-05-01T04:50:19.733Z,5.86
2023-05-01T04:51:20.559Z,5.89
2023-05-01T04:52:21.374Z,5.86
2023-05-01T04:53:22.190Z,5.86
2023-05-01T04:54:23.033Z,5.89
2023-05-01T04:55:23.849Z,5.89
2023-05-01T04:56:24.669Z,5.89
2023-05-01T04:57:25.502Z,5.85
2023-05-01T04:58:26.358Z,5.86
2023-05-01T04:59:27.183Z,5.89
2023-05-01T05:00:28.040Z,5.86
2023-05-01T05:01:28.959Z,5.89
2023-05-01T05:02:29.836Z,5.90
2023-05-01T05:03:30.712Z,5.90
2023-05-01T05:04:31.559Z,5.91
2023-05-01T05:05:32.376Z,5.93
2023-05-01T05:06:33.324Z,5.91
2023-05-01T05:07:34.188Z,5.93
2023-05-01T05:08:35.065Z,5.93
2023-05-01T05:09:35.865Z,5.94
2023-05-01T05:10:36.693Z,5.94
2023-05-01T05:11:37.525Z,5.94
2023-05-01T05:12:38.367Z,5.96
2023-05-01T05:13:39.201Z,5.96
2023-05-01T05:14:40.018Z,5.96
2023-05-01T05:15:40.863Z,5.97
2023-05-01T05:16:41.695Z,6.00
2023-05-01T05:17:42.540Z,5.99
2023-05-01T05:18:43.345Z,5.99
2023-05-01T05:19:44.180Z,6.01
2023-05-01T05:20:45.015Z,6.06
2023-05-01T05:21:45.830Z,6.09
2023-05-01T05:22:46.650Z,6.09
2023-05-01T05:23:47.478Z,6.12
2023-05-01T05:24:48.385Z,6.12
2023-05-01T05:25:49.162Z,6.14
2023-05-01T05:26:49.984Z,6.15
2023-05-01T05:27:50.817Z,6.17
2023-05-01T05:28:51.934Z,6.19
2023-05-01T05:29:52.218Z,6.21
2023-05-01T05:30:53.027Z,6.19
2023-05-01T05:31:54.072Z,6.22
2023-05-01T05:32:54.395Z,6.27
2023-05-01T05:33:55.196Z,6.30
2023-05-01T05:34:56.040Z,6.31
2023-05-01T05:35:56.877Z,6.33
2023-05-01T05:36:57.698Z,6.33
2023-05-01T05:37:58.524Z,6.34
2023-05-01T05:38:59.364Z,6.37
2023-05-01T05:40:00.192Z,6.38
2023-05-01T05:41:01.083Z,6.38
2023-05-01T05:42:01.883Z,6.41
2023-05-01T05:43:02.727Z,6.41
2023-05-01T05:44:03.744Z,6.43
2023-05-01T05:45:04.568Z,6.44
2023-05-01T05:46:05.387Z,6.44
2023-05-01T05:47:06.175Z,6.46
2023-05-01T05:48:07.113Z,6.48
2023-05-01T05:49:07.955Z,6.49
2023-05-01T05:50:08.809Z,6.51
2023-05-01T05:51:09.604Z,6.51
2023-05-01T05:52:10.422Z,6.52
2023-05-01T05:53:11.262Z,6.52
2023-05-01T05:54:12.284Z,6.54
2023-05-01T05:55:12.593Z,6.52
2023-05-01T05:56:13.423Z,6.52
2023-05-01T05:57:14.254Z,6.52
2023-05-01T05:58:15.072Z,6.54
2023-05-01T05:59:17.420Z,6.54
2023-05-01T06:00:16.406Z,6.55
2023-05-01T06:01:17.235Z,6.54
2023-05-01T06:02:18.108Z,6.56
2023-05-01T06:03:18.989Z,6.58
2023-05-01T06:04:19.827Z,6.61
2023-05-01T06:05:20.713Z,6.64
2023-05-01T06:06:21.546Z,6.67
2023-05-01T06:07:22.326Z,6.67
2023-05-01T06:08:23.154Z,6.71
2023-05-01T06:09:23.985Z,6.74
2023-05-01T06:10:24.812Z,6.79
2023-05-01T06:11:25.635Z,6.81
2023-05-01T06:12:26.503Z,6.85
2023-05-01T06:13:27.244Z,6.89
2023-05-01T06:14:28.203Z,6.94
2023-05-01T06:15:28.975Z,6.95
2023-05-01T06:16:29.937Z,6.95
2023-05-01T06:17:30.352Z,6.98
2023-05-01T06:18:31.162Z,6.99
2023-05-01T06:19:32.002Z,7.03
2023-05-01T06:20:32.822Z,7.06
2023-05-01T06:21:33.656Z,7.07
2023-05-01T06:22:34.482Z,7.09
2023-05-01T06:23:35.300Z,7.12
2023-05-01T06:24:36.136Z,7.12
2023-05-01T06:25:36.978Z,7.12
2023-05-01T06:26:37.805Z,7.15
2023-05-01T06:27:38.627Z,7.16
2023-05-01T06:28:39.457Z,7.20
2023-05-01T06:29:40.313Z,7.20
2023-05-01T06:30:41.114Z,7.23
2023-05-01T06:31:41.988Z,7.21
2023-05-01T06:32:42.840Z,7.27
2023-05-01T06:33:43.664Z,7.25
2023-05-01T06:34:44.477Z,7.27
2023-05-01T06:35:45.302Z,7.31
2023-05-01T06:36:46.144Z,7.31
2023-05-01T06:37:46.948Z,7.32
2023-05-01T06:38:47.767Z,7.35
2023-05-01T06:39:48.610Z,7.37
2023-05-01T06:40:49.431Z,7.39
2023-05-01T06:41:50.244Z,7.43
2023-05-01T06:42:51.073Z,7.42
2023-05-01T06:43:51.900Z,7.45
2023-05-01T06:44:52.754Z,7.48
2023-05-01T06:45:53.619Z,7.49
2023-05-01T06:46:54.523Z,7.49
2023-05-01T06:47:55.510Z,7.50
2023-05-01T06:48:55.911Z,7.52
2023-05-01T06:49:57.121Z,7.53
2023-05-01T06:50:57.701Z,7.55
2023-05-01T06:51:58.528Z,7.58
2023-05-01T06:52:59.336Z,7.60
2023-05-01T06:54:00.158Z,7.61
2023-05-01T06:55:01.025Z,7.67
2023-05-01T06:56:01.845Z,7.68
2023-05-01T06:57:02.678Z,7.71
2023-05-01T06:58:16.032Z,7.72
2023-05-01T06:59:05.201Z,7.74
2023-05-01T07:00:05.058Z,7.75
2023-05-01T07:01:05.897Z,7.77
2023-05-01T07:02:06.771Z,7.80
2023-05-01T07:03:07.603Z,7.82
2023-05-01T07:04:08.427Z,7.83
2023-05-01T07:05:09.261Z,7.87
2023-05-01T07:06:10.194Z,7.90
2023-05-01T07:07:10.996Z,7.90
2023-05-01T07:08:11.851Z,7.93
2023-05-01T07:09:12.651Z,7.95
2023-05-01T07:10:13.507Z,7.98
2023-05-01T07:11:14.309Z,8.02
2023-05-01T07:12:15.142Z,8.04
2023-05-01T07:13:15.970Z,8.07
2023-05-01T07:14:16.777Z,8.10
2023-05-01T07:15:17.635Z,8.15
2023-05-01T07:16:18.479Z,8.19
2023-05-01T07:17:19.359Z,8.20
2023-05-01T07:18:20.135Z,8.25
2023-05-01T07:19:20.980Z,8.26
2023-05-01T07:20:21.795Z,8.30
2023-05-01T07:21:22.634Z,8.36
2023-05-01T07:22:23.500Z,8.40
2023-05-01T07:23:24.303Z,8.44
2023-05-01T07:24:25.140Z,8.47
2023-05-01T07:25:25.991Z,8.52
2023-05-01T07:26:26.792Z,8.56
2023-05-01T07:27:27.621Z,8.59
2023-05-01T07:28:28.448Z,8.62
2023-05-01T07:29:29.310Z,8.66
2023-05-01T07:30:30.168Z,8.71
2023-05-01T07:31:31.003Z,8.76
2023-05-01T07:32:31.836Z,8.80
2023-05-01T07:33:32.620Z,8.81
2023-05-01T07:34:33.468Z,8.84
2023-05-01T07:35:34.293Z,8.89
2023-05-01T07:36:35.119Z,8.89
2023-05-01T07:37:35.965Z,8.94
2023-05-01T07:38:36.796Z,8.96
2023-05-01T07:39:37.641Z,8.96
2023-05-01T07:40:38.444Z,9.01
2023-05-01T07:41:39.254Z,9.02
2023-05-01T07:42:40.084Z,9.08
2023-05-01T07:43:40.905Z,9.08
2023-05-01T07:44:41.749Z,9.10
2023-05-01T07:45:42.999Z,9.11
2023-05-01T07:46:43.391Z,9.15
2023-05-01T07:47:44.238Z,9.15
2023-05-01T07:48:45.037Z,9.17
2023-05-01T07:49:45.867Z,9.21
2023-05-01T07:50:46.695Z,9.24
2023-05-01T07:51:47.520Z,9.26
2023-05-01T07:52:48.345Z,9.28
2023-05-01T07:53:49.184Z,9.29
2023-05-01T07:54:50.027Z,9.32
2023-05-01T07:55:50.835Z,9.33
2023-05-01T07:56:51.654Z,9.33
2023-05-01T07:57:52.495Z,9.33
2023-05-01T07:58:53.304Z,9.36
2023-05-01T07:59:54.301Z,9.36
2023-05-01T08:00:54.689Z,9.36
2023-05-01T08:01:55.592Z,9.39
2023-05-01T08:02:56.456Z,9.39
2023-05-01T08:03:57.354Z,9.42
2023-05-01T08:04:58.265Z,9.43
2023-05-01T08:05:59.181Z,9.43
2023-05-01T08:06:59.975Z,9.43
2023-05-01T08:08:00.806Z,9.47
2023-05-01T08:09:01.628Z,9.48
2023-05-01T08:10:02.749Z,9.51
2023-05-01T08:11:03.308Z,9.54
2023-05-01T08:12:04.176Z,9.56
2023-05-01T08:13:04.961Z,9.57
2023-05-01T08:14:05.790Z,9.58
2023-05-01T08:15:06.646Z,9.64
2023-05-01T08:16:07.497Z,9.66
2023-05-01T08:17:08.306Z,9.68
2023-05-01T08:18:09.179Z,9.72
2023-05-01T08:19:09.956Z,9.75
2023-05-01T08:20:10.796Z,9.78
2023-05-01T08:21:11.637Z,9.83
2023-05-01T08:22:12.455Z,9.86
2023-05-01T08:23:13.311Z,9.89
2023-05-01T08:24:14.115Z,9.94
2023-05-01T08:25:14.965Z,9.99
2023-05-01T08:26:15.819Z,10.02
2023-05-01T08:27:16.626Z,10.07
2023-05-01T08:28:17.454Z,10.08
2023-05-01T08:29:18.283Z,10.14
2023-05-01T08:30:19.116Z,10.14
2023-05-01T08:31:19.984Z,10.18
2023-05-01T08:32:20.785Z,10.20
2023-05-01T08:33:21.612Z,10.23
2023-05-01T08:34:22.465Z,10.27
2023-05-01T08:35:23.277Z,10.29
2023-05-01T08:36:24.101Z,10.32
2023-05-01T08:37:24.937Z,10.36
2023-05-01T08:38:25.760Z,10.38
2023-05-01T08:39:26.591Z,10.42
2023-05-01T08:40:27.425Z,10.47
2023-05-01T08:41:28.248Z,10.48
2023-05-01T08:42:31.629Z,10.55
2023-05-01T08:43:30.060Z,10.60
2023-05-01T08:44:30.893Z,10.63
2023-05-01T08:45:31.756Z,10.66
2023-05-01T08:46:32.659Z,10.70
2023-05-01T08:47:33.473Z,10.73
2023-05-01T08:48:34.306Z,10.73
2023-05-01T08:49:35.118Z,10.78
2023-05-01T08:50:35.956Z,10.79
2023-05-01T08:51:36.778Z,10.81
2023-05-01T08:52:37.604Z,10.84
2023-05-01T08:53:38.436Z,10.86
2023-05-01T08:54:39.259Z,10.85
2023-05-01T08:55:40.133Z,10.88
2023-05-01T08:56:40.941Z,10.89
2023-05-01T08:57:41.755Z,10.91
2023-05-01T08:58:42.599Z,10.94
2023-05-01T08:59:43.416Z,10.92
2023-05-01T09:00:44.247Z,10.92
2023-05-01T09:01:45.120Z,10.92
2023-05-01T09:02:45.932Z,10.92
2023-05-01T09:03:46.895Z,10.94
2023-05-01T09:04:47.712Z,10.97
2023-05-01T09:05:48.550Z,10.97
2023-05-01T09:06:49.537Z,10.99
2023-05-01T09:07:49.898Z,11.02
2023-05-01T09:08:50.706Z,11.04
2023-05-01T09:09:51.538Z,11.07
2023-05-01T09:10:52.394Z,11.11
2023-05-01T09:11:53.211Z,11.17
2023-05-01T09:12:54.016Z,11.18
2023-05-01T09:13:54.834Z,11.24
2023-05-01T09:14:55.672Z,11.28
2023-05-01T09:15:56.558Z,11.28
2023-05-01T09:16:57.428Z,11.33
2023-05-01T09:18:00.242Z,11.35
2023-05-01T09:18:59.176Z,11.36
2023-05-01T09:19:59.994Z,11.36
2023-05-01T09:21:00.838Z,11.40
2023-05-01T09:22:01.689Z,11.43
2023-05-01T09:23:02.496Z,11.43
2023-05-01T09:24:03.349Z,11.43
2023-05-01T09:25:04.156Z,11.47
2023-05-01T09:26:04.986Z,11.49
2023-05-01T09:27:05.809Z,11.51
2023-05-01T09:28:06.641Z,11.52
2023-05-01T09:29:07.463Z,11.54
2023-05-01T09:30:08.284Z,11.52
2023-05-01T09:31:09.115Z,11.52
2023-05-01T09:32:09.976Z,11.51
2023-05-01T09:33:11.023Z,11.54
2023-05-01T09:34:11.484Z,11.54
2023-05-01T09:35:12.313Z,11.54
2023-05-01T09:36:13.136Z,11.55
2023-05-01T09:37:13.964Z,11.57
2023-05-01T09:38:14.793Z,11.58
2023-05-01T09:39:15.618Z,11.62
2023-05-01T09:40:16.449Z,11.65
2023-05-01T09:41:17.282Z,11.69
2023-05-01T09:42:18.111Z,11.72
2023-05-01T09:43:18.976Z,11.73
2023-05-01T09:44:19.801Z,11.76
2023-05-01T09:45:20.614Z,11.79
2023-05-01T09:46:21.457Z,11.83
2023-05-01T09:47:22.303Z,11.85
2023-05-01T09:48:23.123Z,11.90
2023-05-01T09:49:23.934Z,11.96
2023-05-01T09:50:24.762Z,12.01
2023-05-01T09:51:25.635Z,12.10
2023-05-01T09:52:26.443Z,12.12
2023-05-01T09:53:27.287Z,12.17
2023-05-01T09:54:28.118Z,12.21
2023-05-01T09:55:28.941Z,12.28
2023-05-01T09:56:29.770Z,12.31
2023-05-01T09:57:30.597Z,12.34
2023-05-01T09:58:31.416Z,12.37
2023-05-01T09:59:32.260Z,12.38
2023-05-01T10:00:33.069Z,12.38
2023-05-01T10:01:33.932Z,12.37
2023-05-01T10:02:34.846Z,12.37
2023-05-01T10:03:35.869Z,12.37
2023-05-01T10:04:36.262Z,12.41
2023-05-01T10:05:37.087Z,12.42
2023-05-01T10:06:38.118Z,12.46
2023-05-01T10:07:38.503Z,12.50
2023-05-01T10:08:39.322Z,12.53
2023-05-01T10:09:40.148Z,12.56
2023-05-01T10:10:40.998Z,12.59
2023-05-01T10:11:41.825Z,12.65
2023-05-01T10:12:42.691Z,12.68
2023-05-01T10:13:43.486Z,12.74
2023-05-01T10:14:44.354Z,12.82
2023-05-01T10:15:45.151Z,12.83
2023-05-01T10:16:46.015Z,12.89
2023-05-01T10:17:46.847Z,12.92
2023-05-01T10:18:47.677Z,12.96
2023-05-01T10:19:48.490Z,12.96
2023-05-01T10:20:49.310Z,12.96
2023-05-01T10:21:50.192Z,12.97
2023-05-01T10:22:50.994Z,13.01
2023-05-01T10:23:51.818Z,13.03
2023-05-01T10:24:52.676Z,13.05
2023-05-01T10:25:53.469Z,13.07
2023-05-01T10:26:54.330Z,13.07
2023-05-01T10:27:55.147Z,13.05
2023-05-01T10:28:55.978Z,13.03
2023-05-01T10:29:57.015Z,13.01
2023-05-01T10:30:57.490Z,13.01
2023-05-01T10:31:58.567Z,13.01
2023-05-01T10:32:58.988Z,13.03
2023-05-01T10:33:59.800Z,13.04
2023-05-01T10:35:00.625Z,13.10
2023-05-01T10:36:01.538Z,13.11
2023-05-01T10:37:02.338Z,13.14
2023-05-01T10:38:03.154Z,13.17
2023-05-01T10:39:03.984Z,13.17
2023-05-01T10:40:04.801Z,13.19
2023-05-01T10:41:05.625Z,13.20
2023-05-01T10:42:06.466Z,13.20
2023-05-01T10:43:07.337Z,13.25
2023-05-01T10:44:08.134Z,13.29
2023-05-01T10:45:08.954Z,13.30
2023-05-01T10:46:09.806Z,13.36
2023-05-01T10:47:10.615Z,13.38
2023-05-01T10:48:11.464Z,13.39
2023-05-01T10:49:12.268Z,13.39
2023-05-01T10:50:13.119Z,13.41
2023-05-01T10:51:13.927Z,13.39
2023-05-01T10:52:14.775Z,13.36
2023-05-01T10:53:15.622Z,13.33
2023-05-01T10:54:16.418Z,13.32
2023-05-01T10:55:17.262Z,13.36
2023-05-01T10:56:18.072Z,13.32
2023-05-01T10:57:18.952Z,13.32
2023-05-01T10:58:19.743Z,13.33
2023-05-01T10:59:20.575Z,13.36
2023-05-01T11:00:21.398Z,13.39
2023-05-01T11:01:22.300Z,13.39
2023-05-01T11:02:23.323Z,13.39
2023-05-01T11:03:23.744Z,13.41
2023-05-01T11:04:24.669Z,13.42
2023-05-01T11:05:38.001Z,13.44
2023-05-01T11:06:27.042Z,13.42
2023-05-01T11:07:26.461Z,13.44
2023-05-01T11:08:27.280Z,13.44
2023-05-01T11:09:28.133Z,13.45
2023-05-01T11:10:28.932Z,13.46
2023-05-01T11:11:29.789Z,13.46
2023-05-01T11:12:30.599Z,13.48
2023-05-01T11:13:31.443Z,13.49
2023-05-01T11:14:32.265Z,13.48
2023-05-01T11:15:33.091Z,13.49
2023-05-01T11:16:33.985Z,13.54
2023-05-01T11:17:34.798Z,13.52
2023-05-01T11:18:35.689Z,13.55
2023-05-01T11:19:36.499Z,13.59
2023-05-01T11:20:37.324Z,13.60
2023-05-01T11:21:38.155Z,13.60
2023-05-01T11:22:38.975Z,13.60
2023-05-01T11:23:39.800Z,13.60
2023-05-01T11:24:40.621Z,13.63
2023-05-01T11:25:41.474Z,13.64
2023-05-01T11:26:42.277Z,13.62
2023-05-01T11:27:43.116Z,13.59
2023-05-01T11:28:43.940Z,13.60
2023-05-01T11:29:44.821Z,13.60
2023-05-01T11:30:45.604Z,13.62
2023-05-01T11:31:46.471Z,13.62
2023-05-01T11:32:47.362Z,13.60
2023-05-01T11:33:48.166Z,13.62
2023-05-01T11:34:49.005Z,13.63
2023-05-01T11:35:49.796Z,13.64
2023-05-01T11:36:50.651Z,13.63
2023-05-01T11:37:51.483Z,13.63
2023-05-01T11:38:52.287Z,13.62
2023-05-01T11:39:53.110Z,13.59
2023-05-01T11:40:53.981Z,13.60
2023-05-01T11:41:54.827Z,13.55
2023-05-01T11:42:55.630Z,13.57
2023-05-01T11:43:56.476Z,13.54
2023-05-01T11:44:57.472Z,13.51
2023-05-01T11:45:57.970Z,13.49
2023-05-01T11:46:58.768Z,13.48
2023-05-01T11:48:02.863Z,13.46
2023-05-01T11:49:00.364Z,13.42
2023-05-01T11:50:01.206Z,13.36
2023-05-01T11:51:02.004Z,13.33
2023-05-01T11:52:02.833Z,13.28
2023-05-01T11:53:03.678Z,13.23
2023-05-01T11:54:04.519Z,13.20
2023-05-01T11:55:05.325Z,13.17
2023-05-01T11:56:13.226Z,13.17
2023-05-01T11:57:07.874Z,13.14
2023-05-01T11:58:07.720Z,13.12
2023-05-01T11:59:08.567Z,13.08
2023-05-01T12:00:09.396Z,13.03
2023-05-01T12:01:10.236Z,12.95
2023-05-01T12:02:11.122Z,12.92
2023-05-01T12:03:12.319Z,12.87
2023-05-01T12:04:13.000Z,12.83
2023-05-01T12:05:13.399Z,12.78
2023-05-01T12:06:14.302Z,12.72
2023-05-01T12:07:15.134Z,12.65
2023-05-01T12:08:15.968Z,12.62
2023-05-01T12:09:16.810Z,12.57
2023-05-01T12:10:17.618Z,12.53
2023-05-01T12:11:18.449Z,12.49
2023-05-01T12:12:19.273Z,12.47
2023-05-01T12:13:20.133Z,12.45
2023-05-01T12:14:20.965Z,12.41
2023-05-01T12:15:21.806Z,12.37
2023-05-01T12:16:22.653Z,12.35
2023-05-01T12:17:23.625Z,12.29
2023-05-01T12:18:24.118Z,12.24
2023-05-01T12:19:25.001Z,12.21
2023-05-01T12:20:25.788Z,12.19
2023-05-01T12:21:26.618Z,12.19
2023-05-01T12:22:27.437Z,12.16
2023-05-01T12:23:28.305Z,12.16
2023-05-01T12:24:29.113Z,12.16
2023-05-01T12:25:29.950Z,12.13
2023-05-01T12:26:30.777Z,12.12
2023-05-01T12:27:31.598Z,12.10
2023-05-01T12:28:32.430Z,12.07
2023-05-01T12:29:33.293Z,12.04
2023-05-01T12:30:34.107Z,11.99
2023-05-01T12:31:34.971Z,11.95
2023-05-01T12:32:35.806Z,11.95
2023-05-01T12:33:36.648Z,11.94
2023-05-01T12:34:37.537Z,11.91
2023-05-01T12:35:38.344Z,11.88
2023-05-01T12:36:39.188Z,11.85
2023-05-01T12:37:39.987Z,11.85
2023-05-01T12:38:40.867Z,11.79
2023-05-01T12:39:41.671Z,11.76
2023-05-01T12:40:42.486Z,11.72
2023-05-01T12:41:43.345Z,11.70
2023-05-01T12:42:44.140Z,11.69
2023-05-01T12:43:44.980Z,11.67
2023-05-01T12:44:45.810Z,11.65
2023-05-01T12:45:46.638Z,11.65
2023-05-01T12:46:47.627Z,11.67
2023-05-01T12:47:47.988Z,11.64
2023-05-01T12:48:48.884Z,11.64
2023-05-01T12:49:49.718Z,11.61
2023-05-01T12:50:51.578Z,11.61
2023-05-01T12:51:51.386Z,11.61
2023-05-01T12:52:52.217Z,11.58
2023-05-01T12:53:53.053Z,11.57
2023-05-01T12:54:53.872Z,11.52
2023-05-01T12:55:54.694Z,11.51
2023-05-01T12:56:55.543Z,11.47
2023-05-01T12:57:56.355Z,11.44
2023-05-01T12:58:57.195Z,11.43
2023-05-01T12:59:58.216Z,11.42
2023-05-01T13:00:58.690Z,11.40
2023-05-01T13:01:59.581Z,11.37
2023-05-01T13:03:00.429Z,11.37
2023-05-01T13:04:01.296Z,11.37
2023-05-01T13:05:02.168Z,11.37
2023-05-01T13:06:03.024Z,11.36
2023-05-01T13:07:03.854Z,11.37
2023-05-01T13:08:04.699Z,11.37
2023-05-01T13:09:05.521Z,11.36
2023-05-01T13:10:06.458Z,11.37
2023-05-01T13:11:07.309Z,11.37
2023-05-01T13:12:08.150Z,11.39
2023-05-01T13:13:08.967Z,11.39
2023-05-01T13:14:09.818Z,11.39
2023-05-01T13:15:10.642Z,11.39
2023-05-01T13:16:11.491Z,11.39
2023-05-01T13:17:12.317Z,11.40
2023-05-01T13:18:13.134Z,11.39
2023-05-01T13:19:13.961Z,11.43